createdAt,value
2023-04-27T00:00:39.193Z,3.30
2023-04-27T00:03:08.764Z,3.30
2023-04-27T00:05:39.395Z,3.30
2023-04-27T00:08:07.727Z,3.30
2023-04-27T00:10:36.358Z,3.30
2023-04-27T00:13:04.396Z,3.30
2023-04-27T00:15:32.641Z,3.20
2023-04-27T00:18:01.665Z,3.10
2023-04-27T00:20:32.047Z,3.20
2023-04-27T00:23:00.023Z,3.20
2023-04-27T00:25:28.143Z,3.20
2023-04-27T00:27:56.283Z,3.20
2023-04-27T00:30:26.139Z,3.20
2023-04-27T00:32:54.811Z,3.20
2023-04-27T00:35:23.334Z,3.20
2023-04-27T00:37:54.691Z,3.20
2023-04-27T00:40:22.992Z,3.20
2023-04-27T00:42:51.170Z,3.10
2023-04-27T00:45:19.273Z,3.10
2023-04-27T00:47:47.349Z,3.10
2023-04-27T00:50:16.235Z,3.20
2023-04-27T00:52:45.375Z,3.20
2023-04-27T00:55:14.802Z,3.20
2023-04-27T00:57:43.000Z,3.20
2023-04-27T01:00:13.288Z,3.20
2023-04-27T01:02:42.348Z,3.20
2023-04-27T01:05:11.055Z,3.20
2023-04-27T01:07:39.784Z,3.20
2023-04-27T01:10:08.980Z,3.20
2023-04-27T01:12:38.382Z,3.20
2023-04-27T01:15:08.451Z,3.20
2023-04-27T01:17:36.590Z,3.10
2023-04-27T01:20:10.511Z,3.10
2023-04-27T01:22:39.013Z,3.10
2023-04-27T01:25:09.658Z,3.10
2023-04-27T01:27:37.644Z,3.00
2023-04-27T01:30:06.781Z,3.00
2023-04-27T01:32:34.788Z,2.90
2023-04-27T01:35:03.006Z,2.90
2023-04-27T01:37:31.127Z,2.80
2023-04-27T01:39:59.141Z,2.80
2023-04-27T01:42:28.493Z,2.80
2023-04-27T01:44:56.661Z,2.70
2023-04-27T01:47:24.695Z,2.60
2023-04-27T01:49:52.692Z,2.50
2023-04-27T01:52:20.704Z,2.50
2023-04-27T01:54:48.769Z,2.50
2023-04-27T01:57:17.641Z,2.40
2023-04-27T01:59:46.967Z,2.40
2023-04-27T02:02:15.036Z,2.40
2023-04-27T02:04:45.249Z,2.40
2023-04-27T02:07:13.581Z,2.30
2023-04-27T02:09:41.780Z,2.30
2023-04-27T02:12:11.702Z,2.30
2023-04-27T02:14:39.782Z,2.30
2023-04-27T02:17:09.069Z,2.20
2023-04-27T02:19:37.378Z,2.20
2023-04-27T02:22:06.851Z,2.20
2023-04-27T02:24:36.760Z,2.20
2023-04-27T02:27:04.934Z,2.10
2023-04-27T02:29:33.438Z,2.10
2023-04-27T02:32:01.937Z,2.10
2023-04-27T02:34:31.264Z,2.00
2023-04-27T02:36:59.930Z,2.00
2023-04-27T02:39:27.897Z,2.00
2023-04-27T02:41:56.600Z,2.00
2023-04-27T02:44:24.700Z,1.90
2023-04-27T02:46:53.089Z,1.90
2023-04-27T02:49:23.358Z,1.90
2023-04-27T02:51:52.668Z,1.80
2023-04-27T02:54:20.956Z,1.80
2023-04-27T02:56:48.956Z,1.80
2023-04-27T02:59:17.024Z,1.80
2023-04-27T03:01:45.143Z,1.70
2023-04-27T03:04:15.167Z,1.70
2023-04-27T03:06:43.388Z,1.70
2023-04-27T03:09:13.361Z,1.70
2023-04-27T03:11:41.559Z,1.70
2023-04-27T03:14:09.579Z,1.70
2023-04-27T03:16:37.815Z,1.60
2023-04-27T03:19:06.261Z,1.60
2023-04-27T03:21:34.263Z,1.60
2023-04-27T03:24:02.985Z,1.60
2023-04-27T03:26:32.753Z,1.60
2023-04-27T03:29:00.959Z,1.60
2023-04-27T03:31:30.056Z,1.60
2023-04-27T03:33:58.248Z,1.60
2023-04-27T03:36:27.003Z,1.60
2023-04-27T03:38:55.048Z,1.60
2023-04-27T03:41:23.126Z,1.60
2023-04-27T03:43:53.479Z,1.70
2023-04-27T03:46:21.696Z,1.70
2023-04-27T03:48:50.440Z,1.70
2023-04-27T03:51:19.202Z,1.70
2023-04-27T03:53:48.204Z,1.80
2023-04-27T03:56:16.312Z,1.80
2023-04-27T03:58:44.314Z,1.80
2023-04-27T04:01:19.778Z,1.80
2023-04-27T04:03:48.608Z,1.90
2023-04-27T04:06:16.922Z,1.90
2023-04-27T04:08:46.785Z,1.80
2023-04-27T04:11:14.918Z,1.80
2023-04-27T04:13:44.143Z,1.80
2023-04-27T04:16:12.165Z,1.90
2023-04-27T04:18:42.018Z,1.90
2023-04-27T04:21:11.150Z,1.90
2023-04-27T04:23:41.169Z,2.00
2023-04-27T04:26:10.060Z,2.00
2023-04-27T04:28:38.951Z,2.00
2023-04-27T04:31:09.532Z,2.10
2023-04-27T04:33:37.641Z,2.10
2023-04-27T04:36:07.730Z,2.20
2023-04-27T04:38:35.862Z,2.20
2023-04-27T04:41:04.000Z,2.30
2023-04-27T04:43:34.391Z,2.40
2023-04-27T04:46:06.511Z,2.40
2023-04-27T04:48:35.626Z,2.50
2023-04-27T04:51:07.211Z,2.60
2023-04-27T04:53:36.014Z,2.60
2023-04-27T04:56:10.281Z,2.70
2023-04-27T04:58:38.406Z,2.80
2023-04-27T05:01:06.865Z,2.80
2023-04-27T05:03:36.052Z,2.90
2023-04-27T05:06:04.275Z,3.00
2023-04-27T05:08:33.648Z,3.10
2023-04-27T05:11:01.701Z,3.10
2023-04-27T05:13:29.760Z,3.20
2023-04-27T05:15:57.799Z,3.30
2023-04-27T05:18:25.836Z,3.40
2023-04-27T05:20:53.850Z,3.40
2023-04-27T05:23:21.870Z,3.50
2023-04-27T05:25:51.747Z,3.50
2023-04-27T05:28:19.824Z,3.60
2023-04-27T05:30:47.839Z,3.60
2023-04-27T05:33:16.112Z,3.70
2023-04-27T05:35:44.085Z,3.80
2023-04-27T05:38:15.073Z,3.80
2023-04-27T05:40:43.066Z,3.90
2023-04-27T05:43:12.568Z,4.00
2023-04-27T05:45:41.729Z,4.10
2023-04-27T05:48:09.798Z,4.20
2023-04-27T05:50:37.863Z,4.20
2023-04-27T05:53:06.081Z,4.30
2023-04-27T05:55:34.114Z,4.40
2023-04-27T05:58:08.732Z,4.60
2023-04-27T06:00:38.891Z,4.70
2023-04-27T06:03:07.170Z,4.80
2023-04-27T06:05:35.642Z,4.80
2023-04-27T06:08:03.813Z,4.90
2023-04-27T06:10:31.850Z,5.00
2023-04-27T06:12:59.877Z,5.00
2023-04-27T06:15:27.860Z,5.00
2023-04-27T06:17:57.333Z,5.20
2023-04-27T06:20:25.476Z,5.60
2023-04-27T06:22:53.472Z,6.10
2023-04-27T06:25:21.851Z,6.70
2023-04-27T06:27:50.770Z,7.30
2023-04-27T06:30:18.788Z,7.90
2023-04-27T06:32:47.006Z,8.70
2023-04-27T06:35:16.600Z,9.40
2023-04-27T06:37:45.174Z,10.00
2023-04-27T06:40:13.701Z,10.40
2023-04-27T06:42:41.677Z,10.80
2023-04-27T06:45:10.728Z,10.90
2023-04-27T06:47:38.808Z,11.10
2023-04-27T06:50:07.541Z,11.00
2023-04-27T06:52:36.843Z,11.10
2023-04-27T06:55:05.286Z,10.80
2023-04-27T06:57:33.237Z,10.60
2023-04-27T07:00:01.466Z,10.60
2023-04-27T07:02:29.473Z,10.70
2023-04-27T07:04:57.633Z,10.80
2023-04-27T07:07:25.836Z,11.10
2023-04-27T07:09:55.184Z,11.40
2023-04-27T07:12:23.207Z,11.80
2023-04-27T07:14:51.512Z,12.20
2023-04-27T07:17:20.169Z,12.60
2023-04-27T07:19:48.308Z,12.90
2023-04-27T07:22:16.616Z,12.90
2023-04-27T07:24:44.640Z,12.90
2023-04-27T07:27:15.074Z,13.00
2023-04-27T07:29:43.544Z,13.00
2023-04-27T07:32:11.597Z,12.80
2023-04-27T07:34:52.003Z,12.70
2023-04-27T07:37:21.187Z,12.60
2023-04-27T07:39:50.149Z,12.60
2023-04-27T07:42:19.812Z,12.40
2023-04-27T07:44:47.839Z,12.60
2023-04-27T07:47:15.862Z,12.80
2023-04-27T07:49:45.560Z,13.30
2023-04-27T07:52:14.129Z,14.00
2023-04-27T07:54:42.407Z,14.50
2023-04-27T07:57:11.641Z,15.10
2023-04-27T07:59:41.355Z,15.60
2023-04-27T08:02:18.999Z,15.70
2023-04-27T08:04:48.606Z,15.80
2023-04-27T08:07:17.724Z,16.10
2023-04-27T08:09:46.168Z,16.30
2023-04-27T08:12:14.164Z,16.60
2023-04-27T08:14:43.516Z,16.50
2023-04-27T08:17:11.878Z,16.60
2023-04-27T08:19:40.225Z,16.60
2023-04-27T08:22:08.614Z,16.70
2023-04-27T08:24:37.503Z,16.80
2023-04-27T08:27:06.906Z,17.10
2023-04-27T08:29:35.217Z,17.20
2023-04-27T08:32:05.753Z,17.30
2023-04-27T08:34:33.865Z,17.30
2023-04-27T08:37:03.323Z,17.40
2023-04-27T08:39:31.405Z,17.60
2023-04-27T08:41:59.581Z,17.70
2023-04-27T08:44:27.572Z,17.60
2023-04-27T08:46:55.561Z,17.00
2023-04-27T08:49:24.917Z,17.20
2023-04-27T08:51:52.883Z,16.70
2023-04-27T08:54:21.694Z,16.60
2023-04-27T08:56:49.735Z,16.60
2023-04-27T08:59:18.065Z,17.00
2023-04-27T09:01:48.667Z,16.80
2023-04-27T09:04:17.867Z,17.10
2023-04-27T09:06:49.061Z,16.90
2023-04-27T09:09:24.316Z,16.70
2023-04-27T09:11:52.379Z,17.00
2023-04-27T09:14:23.039Z,17.40
2023-04-27T09:17:00.530Z,17.80
2023-04-27T09:19:29.713Z,17.90
2023-04-27T09:22:07.311Z,17.60
2023-04-27T09:24:35.929Z,17.30
2023-04-27T09:27:05.031Z,17.20
2023-04-27T09:29:35.944Z,17.10
2023-04-27T09:32:16.683Z,17.20
2023-04-27T09:34:45.418Z,17.50
2023-04-27T09:37:15.810Z,17.90
2023-04-27T09:39:44.254Z,18.10
2023-04-27T09:42:13.436Z,17.90
2023-04-27T09:44:41.460Z,18.00
2023-04-27T09:47:10.423Z,18.00
2023-04-27T09:49:38.917Z,18.10
2023-04-27T09:52:07.161Z,18.00
2023-04-27T09:54:38.026Z,17.90
2023-04-27T09:57:18.450Z,17.40
2023-04-27T10:00:02.971Z,16.80
2023-04-27T10:02:52.501Z,16.30
2023-04-27T10:05:42.835Z,16.00
2023-04-27T10:08:11.871Z,16.10
2023-04-27T10:10:50.818Z,16.30
2023-04-27T10:13:23.823Z,16.30
2023-04-27T10:15:52.574Z,16.40
2023-04-27T10:18:28.552Z,16.90
2023-04-27T10:21:11.197Z,17.30
2023-04-27T10:23:48.430Z,17.80
2023-04-27T10:26:24.954Z,18.20
2023-04-27T10:29:05.478Z,18.10
2023-04-27T10:31:35.202Z,17.80
2023-04-27T10:34:08.505Z,18.00
2023-04-27T10:36:37.779Z,17.90
2023-04-27T10:39:17.010Z,18.30
2023-04-27T10:41:54.117Z,18.50
2023-04-27T10:44:28.386Z,18.20
2023-04-27T10:46:59.618Z,18.20
2023-04-27T10:49:29.298Z,18.20
2023-04-27T10:51:59.877Z,18.30
2023-04-27T10:54:29.289Z,18.20
2023-04-27T10:57:05.844Z,17.90
2023-04-27T10:59:34.930Z,17.80
2023-04-27T11:02:04.151Z,17.80
2023-04-27T11:04:42.387Z,18.10
2023-04-27T11:07:12.426Z,18.30
2023-04-27T11:09:43.442Z,18.20
2023-04-27T11:12:14.651Z,18.00
2023-04-27T11:14:42.752Z,17.70
2023-04-27T11:17:11.771Z,17.60
2023-04-27T11:19:47.347Z,17.80
2023-04-27T11:22:17.810Z,18.10
2023-04-27T11:24:50.660Z,18.40
2023-04-27T11:27:22.342Z,18.40
2023-04-27T11:29:50.459Z,18.40
2023-04-27T11:32:21.835Z,18.00
2023-04-27T11:34:54.766Z,17.60
2023-04-27T11:37:25.476Z,17.80
2023-04-27T11:39:54.249Z,17.90
2023-04-27T11:42:25.433Z,17.90
2023-04-27T11:44:55.089Z,17.90
2023-04-27T11:47:23.588Z,18.00
2023-04-27T11:49:52.895Z,18.00
2023-04-27T11:52:20.930Z,18.10
2023-04-27T11:54:50.265Z,18.20
2023-04-27T11:57:18.891Z,18.20
2023-04-27T11:59:48.274Z,17.90
2023-04-27T12:02:17.087Z,17.70
2023-04-27T12:04:45.514Z,17.90
2023-04-27T12:07:13.687Z,18.00
2023-04-27T12:09:42.068Z,18.30
2023-04-27T12:12:10.585Z,18.70
2023-04-27T12:14:38.718Z,18.90
2023-04-27T12:17:08.245Z,18.50
2023-04-27T12:19:37.250Z,18.30
2023-04-27T12:22:05.703Z,18.30
2023-04-27T12:24:33.889Z,18.50
2023-04-27T12:27:03.301Z,18.50
2023-04-27T12:29:32.202Z,18.80
2023-04-27T12:32:00.884Z,19.00
2023-04-27T12:34:30.353Z,19.10
2023-04-27T12:36:58.464Z,18.70
2023-04-27T12:39:26.810Z,18.70
2023-04-27T12:41:55.547Z,18.90
2023-04-27T12:44:23.623Z,18.90
2023-04-27T12:46:51.999Z,18.80
2023-04-27T12:49:20.246Z,18.90
2023-04-27T12:51:51.923Z,19.00
2023-04-27T12:54:20.226Z,19.20
2023-04-27T12:56:48.337Z,19.50
2023-04-27T12:59:17.034Z,19.80
2023-04-27T13:01:45.875Z,20.00
2023-04-27T13:04:20.649Z,20.00
2023-04-27T13:06:50.832Z,20.00
2023-04-27T13:09:19.115Z,19.90
2023-04-27T13:11:47.287Z,20.00
2023-04-27T13:14:15.750Z,20.00
2023-04-27T13:16:44.130Z,19.90
2023-04-27T13:19:12.284Z,19.90
2023-04-27T13:21:40.573Z,19.90
2023-04-27T13:24:10.541Z,20.10
2023-04-27T13:26:38.814Z,20.10
2023-04-27T13:29:06.846Z,20.10
2023-04-27T13:31:35.008Z,19.70
2023-04-27T13:34:04.783Z,19.80
2023-04-27T13:36:32.834Z,19.90
2023-04-27T13:39:01.949Z,20.00
2023-04-27T13:41:32.276Z,20.10
2023-04-27T13:44:00.772Z,20.10
2023-04-27T13:46:28.818Z,19.80
2023-04-27T13:48:57.226Z,19.40
2023-04-27T13:51:26.618Z,19.20
2023-04-27T13:53:54.587Z,19.10
2023-04-27T13:56:22.674Z,18.90
2023-04-27T13:58:52.172Z,18.90
2023-04-27T14:01:20.268Z,18.80
2023-04-27T14:03:48.525Z,18.90
2023-04-27T14:06:16.725Z,18.90
2023-04-27T14:08:44.676Z,18.80
2023-04-27T14:11:14.195Z,18.70
2023-04-27T14:13:42.239Z,18.70
2023-04-27T14:16:11.738Z,18.50
2023-04-27T14:18:39.787Z,18.60
2023-04-27T14:21:07.861Z,18.60
2023-04-27T14:23:36.008Z,18.40
2023-04-27T14:26:05.073Z,18.30
2023-04-27T14:28:33.071Z,18.20
2023-04-27T14:31:01.370Z,18.10
2023-04-27T14:33:31.761Z,18.10
2023-04-27T14:36:00.286Z,18.20
2023-04-27T14:38:28.417Z,18.10
2023-04-27T14:40:56.568Z,18.10
2023-04-27T14:43:24.820Z,18.10
2023-04-27T14:45:59.370Z,18.10
2023-04-27T14:48:34.498Z,18.10
2023-04-27T14:51:03.043Z,18.10
2023-04-27T14:53:31.112Z,18.10
2023-04-27T14:55:59.111Z,18.10
2023-04-27T14:58:27.546Z,18.10
2023-04-27T15:00:55.630Z,18.20
2023-04-27T15:03:23.855Z,18.20
2023-04-27T15:05:53.322Z,18.10
2023-04-27T15:08:21.412Z,18.00
2023-04-27T15:10:49.572Z,17.90
2023-04-27T15:13:17.734Z,17.90
2023-04-27T15:15:46.103Z,17.80
2023-04-27T15:18:14.211Z,17.60
2023-04-27T15:20:43.614Z,17.60
2023-04-27T15:23:13.918Z,17.60
2023-04-27T15:25:43.924Z,17.60
2023-04-27T15:28:11.929Z,17.60
2023-04-27T15:30:40.004Z,17.50
2023-04-27T15:33:10.127Z,17.50
2023-04-27T15:35:40.233Z,17.40
2023-04-27T15:38:10.276Z,17.30
2023-04-27T15:40:40.410Z,17.10
2023-04-27T15:43:08.619Z,17.10
2023-04-27T15:45:36.621Z,16.70
2023-04-27T15:48:06.715Z,16.30
2023-04-27T15:50:34.863Z,16.00
2023-04-27T15:53:02.803Z,16.00
2023-04-27T15:55:30.962Z,16.00
2023-04-27T15:58:00.361Z,15.70
2023-04-27T16:00:28.791Z,15.50
2023-04-27T16:02:57.070Z,15.60
2023-04-27T16:05:25.183Z,15.60
2023-04-27T16:07:53.489Z,15.60
2023-04-27T16:10:21.502Z,15.60
2023-04-27T16:12:50.276Z,15.60
2023-04-27T16:15:19.890Z,15.40
2023-04-27T16:17:48.057Z,15.40
2023-04-27T16:20:16.338Z,15.30
2023-04-27T16:22:44.379Z,15.20
2023-04-27T16:25:12.484Z,15.20
2023-04-27T16:27:40.901Z,15.20
2023-04-27T16:30:10.199Z,15.10
2023-04-27T16:32:40.630Z,15.00
2023-04-27T16:35:09.552Z,14.90
2023-04-27T16:37:38.273Z,14.80
2023-04-27T16:40:08.382Z,14.80
2023-04-27T16:42:36.533Z,14.70
2023-04-27T16:45:05.034Z,14.60
2023-04-27T16:47:33.702Z,14.60
2023-04-27T16:50:03.195Z,14.00
2023-04-27T16:52:31.680Z,13.70
2023-04-27T16:54:59.736Z,13.40
2023-04-27T16:57:27.910Z,13.00
2023-04-27T16:59:56.476Z,13.00
2023-04-27T17:02:25.851Z,13.00
2023-04-27T17:04:54.832Z,13.00
2023-04-27T17:07:25.499Z,13.00
2023-04-27T17:09:54.240Z,13.00
2023-04-27T17:12:22.608Z,12.90
2023-04-27T17:14:52.209Z,12.60
2023-04-27T17:17:20.430Z,12.50
2023-04-27T17:19:48.580Z,12.60
2023-04-27T17:22:16.631Z,12.60
2023-04-27T17:24:46.302Z,12.60
2023-04-27T17:27:14.360Z,12.60
2023-04-27T17:29:42.498Z,12.60
2023-04-27T17:32:10.799Z,12.60
2023-04-27T17:34:40.408Z,12.50
2023-04-27T17:37:10.511Z,12.50
2023-04-27T17:39:38.856Z,12.40
2023-04-27T17:42:12.675Z,12.30
2023-04-27T17:44:42.405Z,12.30
2023-04-27T17:47:11.013Z,12.20
2023-04-27T17:49:39.102Z,12.20
2023-04-27T17:52:07.383Z,12.10
2023-04-27T17:54:35.550Z,12.00
2023-04-27T17:57:03.959Z,11.90
2023-04-27T17:59:33.566Z,11.60
2023-04-27T18:02:01.649Z,11.30
2023-04-27T18:04:30.195Z,11.30
2023-04-27T18:06:58.464Z,11.20
2023-04-27T18:09:28.456Z,11.00
2023-04-27T18:11:57.515Z,11.00
2023-04-27T18:14:25.635Z,11.00
2023-04-27T18:16:55.274Z,11.00
2023-04-27T18:19:24.693Z,10.90
2023-04-27T18:21:52.719Z,10.90
2023-04-27T18:24:21.039Z,10.80
2023-04-27T18:26:49.480Z,10.70
2023-04-27T18:29:17.712Z,10.60
2023-04-27T18:31:46.302Z,10.60
2023-04-27T18:34:16.053Z,10.40
2023-04-27T18:36:45.743Z,10.30
2023-04-27T18:39:14.222Z,10.20
2023-04-27T18:41:42.678Z,10.20
2023-04-27T18:44:10.990Z,10.10
2023-04-27T18:46:39.006Z,10.00
2023-04-27T18:49:07.399Z,9.90
2023-04-27T18:51:36.834Z,9.80
2023-04-27T18:56:35.416Z,9.60
2023-04-27T18:59:03.636Z,9.50
2023-04-27T19:01:33.400Z,9.40
2023-04-27T19:04:02.258Z,9.30
2023-04-27T19:06:31.323Z,9.20
2023-04-27T19:09:01.238Z,9.10
2023-04-27T19:11:30.402Z,9.00
2023-04-27T19:13:58.746Z,8.80
2023-04-27T19:16:27.101Z,8.70
2023-04-27T19:18:55.340Z,8.70
2023-04-27T19:21:23.659Z,8.60
2023-04-27T19:23:52.282Z,8.60
2023-04-27T19:26:22.413Z,8.50
2023-04-27T19:28:50.500Z,8.40
2023-04-27T19:31:18.803Z,8.40
2023-04-27T19:33:54.737Z,8.40
2023-04-27T19:36:24.076Z,8.30
2023-04-27T19:38:53.164Z,8.30
2023-04-27T19:41:22.558Z,8.30
2023-04-27T19:43:50.630Z,8.20
2023-04-27T19:46:18.714Z,8.10
2023-04-27T19:48:46.751Z,8.10
2023-04-27T19:51:15.059Z,8.00
2023-04-27T19:53:43.086Z,7.90
2023-04-27T19:56:11.078Z,7.90
2023-04-27T19:58:41.692Z,7.80
2023-04-27T20:01:12.321Z,7.70
2023-04-27T20:03:41.624Z,7.70
2023-04-27T20:06:10.478Z,7.60
2023-04-27T20:08:38.638Z,7.60
2023-04-27T20:11:07.828Z,7.50
2023-04-27T20:13:35.856Z,7.50
2023-04-27T20:16:05.480Z,7.40
2023-04-27T20:18:33.833Z,7.30
2023-04-27T20:21:01.923Z,7.20
2023-04-27T20:23:30.586Z,7.10
2023-04-27T20:25:58.636Z,7.00
2023-04-27T20:28:28.047Z,6.90
2023-04-27T20:30:57.895Z,6.80
2023-04-27T20:33:27.270Z,6.70
2023-04-27T20:36:03.525Z,6.50
2023-04-27T20:38:34.682Z,6.40
2023-04-27T20:41:03.687Z,6.40
2023-04-27T20:43:32.682Z,6.30
2023-04-27T20:46:00.826Z,6.30
2023-04-27T20:48:30.262Z,6.20
2023-04-27T20:50:58.307Z,6.20
2023-04-27T20:53:27.056Z,6.20
2023-04-27T20:55:55.104Z,6.10
2023-04-27T20:58:23.575Z,6.10
2023-04-27T21:00:53.043Z,6.10
2023-04-27T21:03:21.293Z,6.10
2023-04-27T21:05:51.985Z,6.00
2023-04-27T21:08:20.092Z,6.00
2023-04-27T21:10:48.255Z,6.00
2023-04-27T21:13:16.295Z,5.90
2023-04-27T21:15:44.484Z,5.90
2023-04-27T21:18:19.179Z,5.90
2023-04-27T21:20:58.386Z,5.90
2023-04-27T21:23:26.739Z,5.80
2023-04-27T21:25:55.091Z,5.70
2023-04-27T21:28:23.212Z,5.70
2023-04-27T21:30:51.402Z,5.70
2023-04-27T21:33:19.518Z,5.60
2023-04-27T21:35:47.554Z,5.60
2023-04-27T21:38:17.605Z,5.50
2023-04-27T21:40:45.885Z,5.50
2023-04-27T21:43:13.969Z,5.40
2023-04-27T21:45:42.040Z,5.30
2023-04-27T21:48:10.236Z,5.20
2023-04-27T21:50:38.339Z,5.20
2023-04-27T21:53:06.461Z,5.10
2023-04-27T21:55:35.835Z,5.00
2023-04-27T21:58:03.953Z,5.00
2023-04-27T22:00:32.179Z,4.90
2023-04-27T22:03:00.688Z,4.90
2023-04-27T22:05:29.383Z,4.90
2023-04-27T22:07:58.220Z,4.80
2023-04-27T22:10:26.317Z,4.80
2023-04-27T22:12:56.916Z,4.80
2023-04-27T22:15:26.557Z,4.70
2023-04-27T22:17:55.927Z,4.60
2023-04-27T22:20:24.779Z,4.50
2023-04-27T22:22:52.944Z,4.50
2023-04-27T22:25:21.747Z,4.40
2023-04-27T22:27:50.105Z,4.30
2023-04-27T22:30:19.565Z,4.20
2023-04-27T22:32:47.723Z,4.10
2023-04-27T22:35:25.514Z,4.00
2023-04-27T22:37:55.748Z,3.90
2023-04-27T22:40:24.331Z,3.80
2023-04-27T22:42:52.567Z,3.80
2023-04-27T22:45:22.138Z,3.70
2023-04-27T22:47:50.456Z,3.60
2023-04-27T22:50:18.662Z,3.60
2023-04-27T22:52:46.847Z,3.70
2023-04-27T22:55:15.003Z,3.70
2023-04-27T22:57:43.283Z,3.60
2023-04-27T23:00:12.511Z,3.60
2023-04-27T23:02:42.364Z,3.60
2023-04-27T23:05:12.365Z,3.70
2023-04-27T23:07:42.940Z,3.70
2023-04-27T23:10:12.980Z,3.70
2023-04-27T23:12:41.636Z,3.70
2023-04-27T23:15:10.243Z,3.60
2023-04-27T23:17:38.479Z,3.60
2023-04-27T23:20:24.114Z,3.60
2023-04-27T23:22:55.201Z,3.60
2023-04-27T23:25:23.313Z,3.50
2023-04-27T23:27:52.579Z,3.50
2023-04-27T23:30:21.761Z,3.60
2023-04-27T23:32:50.028Z,3.60
2023-04-27T23:35:19.416Z,3.60
2023-04-27T23:37:47.488Z,3.70
2023-04-27T23:40:15.706Z,3.60
2023-04-27T23:42:43.684Z,3.60
2023-04-27T23:45:12.526Z,3.60
2023-04-27T23:47:40.813Z,3.70
2023-04-27T23:50:09.550Z,3.70
2023-04-27T23:52:38.931Z,3.70
2023-04-27T23:55:08.232Z,3.70
2023-04-27T23:57:36.235Z,3.70
